Webster Springs, WV

12:04 AM EDT on September 20, 2014 (GMT -0400)
Greenbrier Valley | Change Station
CLOSE
Current Station
Airport
Location: Lewisburg,
Elevation: 2303 ft
Nearby Weather Stations

Elev 2303 ft 37.86 °N, 80.40 °W | Updated 9 minutes ago

Partly Cloudy
Partly Cloudy
59 °F
Feels Like 59 °F
N
4
Wind Variable Wind from NE

Today
High -- | Low -- °F
--% Chance of Precip.
Yesterday
High -- | Low -- °F
Precip. -- in
7:07 AM 7:21 PM
Waning Crescent, 15% visible
Pressure 30.29 in
Visibility 10.0 miles
Clouds Mostly Cloudy 2200 ft
Overcast 2900 ft
Dew Point 54 °F
Humidity 82%
Rainfall 0.00 in
Snow Depth Not available.
UV 0 out of 12
Pollen 4.00 out of 12
Air Quality Not available.
Flu Activity Not available.
METAR KLWB 200355Z AUTO 05003KT 10SM BKN022 OVC029 15/12 A3029 RMK AO2 T01510121

More Conditions Fewer Conditions

Pressure 30.29 in
Visibility 10.0 miles
Clouds Mostly Cloudy 2200 ft
Overcast 2900 ft
Dew Point 54 °F
Humidity 82%
Rainfall 0.00 in
Snow Depth Not available.
UV 0 out of 12
Pollen 4.00 out of 12
Air Quality Not available.
Flu Activity Not available.
METAR KLWB 200355Z AUTO 05003KT 10SM BKN022 OVC029 15/12 A3029 RMK AO2 T01510121

More Conditions Fewer Conditions

10-Day Weather Forecast

Almanac

Astronomy

Sep. 20, 2014 Rise Set
Actual Time 7:07 AM EDT 7:21 PM EDT
Civil Twilight 6:40 AM EDT 7:48 PM EDT
Nautical Twilight 6:09 AM EDT 8:19 PM EDT
Astronomical Twilight 5:38 AM EDT 8:50 PM EDT
Moon 3:47 AM EDT 5:22 PM EDT
Length of Visible Light 13h 07m
Length of Day
12h 14m
Tomorrow will be 2m 28s shorter.
Waning Crescent, 15% of the Moon is Illuminated
Today
Waning Crescent
Sep 24
New
Oct 1
First Quarter
Oct 8
Full
Oct 15
Last Quarter

Yesterday's Extremes

State Highs State Lows

Community

WunderPhotos

Upload Photos

1,754,777 photos uploaded!

WunderBlogs® & News

Nearby

Snow Depth

Station Depth Elevation
No new snow has been reported.

Earthquake Activity

City Distance Mag. Time & Date
No recent earthquake activity has been reported nearby.
Minimum magnitude displayed is 2.5.

Coastal Water Temperatures

Place Temperature
No Stations Reporting

Nearby Weather Stations